sensor_id;sensor_type;location;lat;lon;timestamp;P1;durP1;ratioP1;P2;durP2;ratioP2
14994;SDS011;7593;49.006;8.372;2023-04-29T00:01:48;4.97;;;4.47;;
14994;SDS011;7593;49.006;8.372;2023-04-29T00:04:14;5.82;;;4.47;;
14994;SDS011;7593;49.006;8.372;2023-04-29T00:06:41;5.50;;;4.60;;
14994;SDS011;7593;49.006;8.372;2023-04-29T00:09:08;6.28;;;4.60;;
14994;SDS011;7593;49.006;8.372;2023-04-29T00:11:36;6.22;;;5.07;;
14994;SDS011;7593;49.006;8.372;2023-04-29T00:14:03;7.57;;;4.78;;
14994;SDS011;7593;49.006;8.372;2023-04-29T00:16:30;6.75;;;4.53;;
14994;SDS011;7593;49.006;8.372;2023-04-29T00:18:57;5.22;;;4.70;;
14994;SDS011;7593;49.006;8.372;2023-04-29T00:21:24;6.95;;;5.22;;
14994;SDS011;7593;49.006;8.372;2023-04-29T00:23:51;5.57;;;5.05;;
14994;SDS011;7593;49.006;8.372;2023-04-29T00:26:18;6.03;;;5.40;;
14994;SDS011;7593;49.006;8.372;2023-04-29T00:28:46;8.48;;;5.95;;
14994;SDS011;7593;49.006;8.372;2023-04-29T00:31:13;6.25;;;5.22;;
14994;SDS011;7593;49.006;8.372;2023-04-29T00:33:39;8.57;;;5.60;;
14994;SDS011;7593;49.006;8.372;2023-04-29T00:36:07;6.53;;;5.82;;
14994;SDS011;7593;49.006;8.372;2023-04-29T00:38:34;6.15;;;5.55;;
14994;SDS011;7593;49.006;8.372;2023-04-29T00:41:01;5.90;;;5.30;;
14994;SDS011;7593;49.006;8.372;2023-04-29T00:43:28;8.65;;;5.70;;
14994;SDS011;7593;49.006;8.372;2023-04-29T00:45:56;6.95;;;5.35;;
14994;SDS011;7593;49.006;8.372;2023-04-29T00:48:23;6.18;;;5.55;;
14994;SDS011;7593;49.006;8.372;2023-04-29T00:50:50;6.00;;;5.35;;
14994;SDS011;7593;49.006;8.372;2023-04-29T00:53:17;6.78;;;6.07;;
14994;SDS011;7593;49.006;8.372;2023-04-29T00:55:44;6.00;;;5.50;;
14994;SDS011;7593;49.006;8.372;2023-04-29T00:58:12;8.65;;;6.60;;
14994;SDS011;7593;49.006;8.372;2023-04-29T01:00:39;9.13;;;7.45;;
14994;SDS011;7593;49.006;8.372;2023-04-29T01:03:09;8.65;;;7.05;;
14994;SDS011;7593;49.006;8.372;2023-04-29T01:05:36;8.30;;;6.93;;
14994;SDS011;7593;49.006;8.372;2023-04-29T01:08:08;9.98;;;8.45;;
14994;SDS011;7593;49.006;8.372;2023-04-29T01:10:43;7.25;;;6.55;;
14994;SDS011;7593;49.006;8.372;2023-04-29T01:13:16;7.25;;;6.57;;
14994;SDS011;7593;49.006;8.372;2023-04-29T01:15:48;10.55;;;8.70;;
14994;SDS011;7593;49.006;8.372;2023-04-29T01:18:25;9.02;;;6.95;;
14994;SDS011;7593;49.006;8.372;2023-04-29T01:20:55;8.13;;;6.70;;
14994;SDS011;7593;49.006;8.372;2023-04-29T01:23:25;11.98;;;6.80;;
14994;SDS011;7593;49.006;8.372;2023-04-29T01:25:52;7.70;;;7.00;;
14994;SDS011;7593;49.006;8.372;2023-04-29T01:28:21;8.13;;;7.32;;
14994;SDS011;7593;49.006;8.372;2023-04-29T01:31:03;7.32;;;6.63;;
14994;SDS011;7593;49.006;8.372;2023-04-29T01:33:35;7.75;;;6.47;;
14994;SDS011;7593;49.006;8.372;2023-04-29T01:36:11;7.50;;;6.70;;
14994;SDS011;7593;49.006;8.372;2023-04-29T01:38:48;7.65;;;6.47;;
14994;SDS011;7593;49.006;8.372;2023-04-29T01:41:25;9.60;;;6.40;;
14994;SDS011;7593;49.006;8.372;2023-04-29T01:44:00;8.25;;;6.50;;
14994;SDS011;7593;49.006;8.372;2023-04-29T01:46:28;7.03;;;6.32;;
14994;SDS011;7593;49.006;8.372;2023-04-29T01:48:56;7.55;;;6.75;;
14994;SDS011;7593;49.006;8.372;2023-04-29T01:51:23;7.53;;;6.65;;
14994;SDS011;7593;49.006;8.372;2023-04-29T01:53:51;7.90;;;7.10;;
14994;SDS011;7593;49.006;8.372;2023-04-29T01:56:18;7.82;;;7.05;;
14994;SDS011;7593;49.006;8.372;2023-04-29T01:58:45;9.00;;;7.10;;
14994;SDS011;7593;49.006;8.372;2023-04-29T02:01:11;7.53;;;6.82;;
14994;SDS011;7593;49.006;8.372;2023-04-29T02:03:38;7.07;;;6.38;;
14994;SDS011;7593;49.006;8.372;2023-04-29T02:06:05;7.85;;;7.10;;
14994;SDS011;7593;49.006;8.372;2023-04-29T02:08:32;11.20;;;7.60;;
14994;SDS011;7593;49.006;8.372;2023-04-29T02:11:00;8.77;;;7.72;;
14994;SDS011;7593;49.006;8.372;2023-04-29T02:13:26;9.20;;;7.00;;
14994;SDS011;7593;49.006;8.372;2023-04-29T02:15:53;8.82;;;7.90;;
14994;SDS011;7593;49.006;8.372;2023-04-29T02:18:20;8.15;;;7.35;;
14994;SDS011;7593;49.006;8.372;2023-04-29T02:20:47;8.20;;;7.40;;
14994;SDS011;7593;49.006;8.372;2023-04-29T02:23:15;8.85;;;7.70;;
14994;SDS011;7593;49.006;8.372;2023-04-29T02:25:42;8.27;;;7.38;;
14994;SDS011;7593;49.006;8.372;2023-04-29T02:28:10;8.38;;;7.60;;
14994;SDS011;7593;49.006;8.372;2023-04-29T02:30:37;9.68;;;7.43;;
14994;SDS011;7593;49.006;8.372;2023-04-29T02:33:04;7.88;;;7.07;;
14994;SDS011;7593;49.006;8.372;2023-04-29T02:35:31;8.50;;;7.63;;
14994;SDS011;7593;49.006;8.372;2023-04-29T02:37:57;9.32;;;8.00;;
14994;SDS011;7593;49.006;8.372;2023-04-29T02:40:24;9.93;;;7.75;;
14994;SDS011;7593;49.006;8.372;2023-04-29T02:42:51;7.88;;;7.07;;
14994;SDS011;7593;49.006;8.372;2023-04-29T02:45:19;7.80;;;7.03;;
14994;SDS011;7593;49.006;8.372;2023-04-29T02:47:46;10.32;;;7.30;;
14994;SDS011;7593;49.006;8.372;2023-04-29T02:50:13;8.68;;;7.75;;
14994;SDS011;7593;49.006;8.372;2023-04-29T02:52:40;9.82;;;7.75;;
14994;SDS011;7593;49.006;8.372;2023-04-29T02:55:07;8.32;;;7.15;;
14994;SDS011;7593;49.006;8.372;2023-04-29T02:57:34;9.02;;;7.97;;
14994;SDS011;7593;49.006;8.372;2023-04-29T03:00:01;10.90;;;7.47;;
14994;SDS011;7593;49.006;8.372;2023-04-29T03:02:30;8.95;;;7.78;;
14994;SDS011;7593;49.006;8.372;2023-04-29T03:04:56;8.80;;;7.20;;
14994;SDS011;7593;49.006;8.372;2023-04-29T03:07:23;9.95;;;7.32;;
14994;SDS011;7593;49.006;8.372;2023-04-29T03:09:50;8.63;;;7.18;;
14994;SDS011;7593;49.006;8.372;2023-04-29T03:12:17;11.65;;;7.90;;
14994;SDS011;7593;49.006;8.372;2023-04-29T03:14:43;8.20;;;6.80;;
14994;SDS011;7593;49.006;8.372;2023-04-29T03:17:10;7.55;;;6.82;;
14994;SDS011;7593;49.006;8.372;2023-04-29T03:19:38;7.43;;;6.57;;
14994;SDS011;7593;49.006;8.372;2023-04-29T03:22:05;8.25;;;7.32;;
14994;SDS011;7593;49.006;8.372;2023-04-29T03:24:35;7.47;;;6.80;;
14994;SDS011;7593;49.006;8.372;2023-04-29T03:27:02;8.20;;;7.35;;
14994;SDS011;7593;49.006;8.372;2023-04-29T03:29:29;7.72;;;6.93;;
14994;SDS011;7593;49.006;8.372;2023-04-29T03:31:56;7.60;;;6.90;;
14994;SDS011;7593;49.006;8.372;2023-04-29T03:34:23;7.80;;;7.10;;
14994;SDS011;7593;49.006;8.372;2023-04-29T03:36:51;7.47;;;6.78;;
14994;SDS011;7593;49.006;8.372;2023-04-29T03:39:18;7.88;;;6.90;;
14994;SDS011;7593;49.006;8.372;2023-04-29T03:41:45;7.40;;;6.70;;
14994;SDS011;7593;49.006;8.372;2023-04-29T03:44:12;7.78;;;7.03;;
14994;SDS011;7593;49.006;8.372;2023-04-29T03:46:39;7.50;;;6.80;;
14994;SDS011;7593;49.006;8.372;2023-04-29T03:49:06;7.80;;;6.65;;
14994;SDS011;7593;49.006;8.372;2023-04-29T03:51:33;7.90;;;7.13;;
14994;SDS011;7593;49.006;8.372;2023-04-29T03:54:01;8.32;;;6.93;;
14994;SDS011;7593;49.006;8.372;2023-04-29T03:56:28;7.35;;;6.68;;
14994;SDS011;7593;49.006;8.372;2023-04-29T03:58:55;7.20;;;6.38;;
14994;SDS011;7593;49.006;8.372;2023-04-29T04:01:21;7.90;;;6.90;;
14994;SDS011;7593;49.006;8.372;2023-04-29T04:03:48;7.93;;;7.07;;
14994;SDS011;7593;49.006;8.372;2023-04-29T04:06:15;7.60;;;6.68;;
14994;SDS011;7593;49.006;8.372;2023-04-29T04:08:41;8.50;;;6.30;;
14994;SDS011;7593;49.006;8.372;2023-04-29T04:11:09;6.95;;;5.88;;
14994;SDS011;7593;49.006;8.372;2023-04-29T04:13:39;7.35;;;5.40;;
14994;SDS011;7593;49.006;8.372;2023-04-29T04:16:06;7.03;;;5.60;;
14994;SDS011;7593;49.006;8.372;2023-04-29T04:18:33;6.07;;;5.57;;
14994;SDS011;7593;49.006;8.372;2023-04-29T04:21:03;6.78;;;5.88;;
14994;SDS011;7593;49.006;8.372;2023-04-29T04:23:30;6.03;;;5.43;;
14994;SDS011;7593;49.006;8.372;2023-04-29T04:25:57;6.22;;;5.63;;
14994;SDS011;7593;49.006;8.372;2023-04-29T04:28:25;6.53;;;5.90;;
14994;SDS011;7593;49.006;8.372;2023-04-29T04:30:52;9.30;;;6.47;;
14994;SDS011;7593;49.006;8.372;2023-04-29T04:33:19;6.75;;;6.15;;
14994;SDS011;7593;49.006;8.372;2023-04-29T04:35:46;8.57;;;6.72;;
14994;SDS011;7593;49.006;8.372;2023-04-29T04:38:13;6.55;;;5.68;;
14994;SDS011;7593;49.006;8.372;2023-04-29T04:40:40;6.78;;;6.07;;
14994;SDS011;7593;49.006;8.372;2023-04-29T04:43:07;6.45;;;5.88;;
14994;SDS011;7593;49.006;8.372;2023-04-29T04:45:35;6.50;;;5.80;;
14994;SDS011;7593;49.006;8.372;2023-04-29T04:48:02;8.43;;;6.45;;
14994;SDS011;7593;49.006;8.372;2023-04-29T04:50:29;6.70;;;6.10;;
14994;SDS011;7593;49.006;8.372;2023-04-29T04:52:55;7.15;;;6.22;;
14994;SDS011;7593;49.006;8.372;2023-04-29T04:55:23;7.38;;;6.53;;
14994;SDS011;7593;49.006;8.372;2023-04-29T04:57:50;6.57;;;5.85;;
14994;SDS011;7593;49.006;8.372;2023-04-29T05:00:16;6.57;;;5.50;;
14994;SDS011;7593;49.006;8.372;2023-04-29T05:02:45;9.13;;;5.82;;
14994;SDS011;7593;49.006;8.372;2023-04-29T05:05:11;6.72;;;5.90;;
14994;SDS011;7593;49.006;8.372;2023-04-29T05:07:38;6.35;;;5.50;;
14994;SDS011;7593;49.006;8.372;2023-04-29T05:10:05;6.85;;;5.45;;
14994;SDS011;7593;49.006;8.372;2023-04-29T05:12:33;5.15;;;4.75;;
14994;SDS011;7593;49.006;8.372;2023-04-29T05:15:00;5.63;;;5.07;;
14994;SDS011;7593;49.006;8.372;2023-04-29T05:17:27;5.32;;;4.47;;
14994;SDS011;7593;49.006;8.372;2023-04-29T05:19:56;4.95;;;4.45;;
14994;SDS011;7593;49.006;8.372;2023-04-29T05:22:22;4.65;;;4.20;;
14994;SDS011;7593;49.006;8.372;2023-04-29T05:24:49;5.95;;;4.28;;
14994;SDS011;7593;49.006;8.372;2023-04-29T05:27:17;5.80;;;3.75;;
14994;SDS011;7593;49.006;8.372;2023-04-29T05:29:44;4.18;;;3.80;;
14994;SDS011;7593;49.006;8.372;2023-04-29T05:32:11;3.80;;;3.50;;
14994;SDS011;7593;49.006;8.372;2023-04-29T05:34:38;3.83;;;3.53;;
14994;SDS011;7593;49.006;8.372;2023-04-29T05:37:06;4.72;;;3.72;;
14994;SDS011;7593;49.006;8.372;2023-04-29T05:39:32;5.80;;;3.70;;
14994;SDS011;7593;49.006;8.372;2023-04-29T05:41:59;4.47;;;3.58;;
14994;SDS011;7593;49.006;8.372;2023-04-29T05:44:27;3.80;;;3.42;;
14994;SDS011;7593;49.006;8.372;2023-04-29T05:46:54;3.67;;;3.35;;
14994;SDS011;7593;49.006;8.372;2023-04-29T05:49:20;4.40;;;3.90;;
14994;SDS011;7593;49.006;8.372;2023-04-29T05:51:47;5.47;;;3.58;;
14994;SDS011;7593;49.006;8.372;2023-04-29T05:54:17;3.80;;;3.40;;
14994;SDS011;7593;49.006;8.372;2023-04-29T05:56:44;5.68;;;3.80;;
14994;SDS011;7593;49.006;8.372;2023-04-29T05:59:12;4.35;;;3.58;;
14994;SDS011;7593;49.006;8.372;2023-04-29T06:01:39;6.28;;;3.63;;
14994;SDS011;7593;49.006;8.372;2023-04-29T06:04:06;7.15;;;3.40;;
14994;SDS011;7593;49.006;8.372;2023-04-29T06:06:33;3.97;;;3.40;;
14994;SDS011;7593;49.006;8.372;2023-04-29T06:08:59;3.95;;;3.30;;
14994;SDS011;7593;49.006;8.372;2023-04-29T06:11:28;3.75;;;2.90;;
14994;SDS011;7593;49.006;8.372;2023-04-29T06:13:55;4.13;;;3.15;;
14994;SDS011;7593;49.006;8.372;2023-04-29T06:16:22;3.40;;;3.10;;
14994;SDS011;7593;49.006;8.372;2023-04-29T06:18:49;5.60;;;3.20;;
14994;SDS011;7593;49.006;8.372;2023-04-29T06:21:16;6.20;;;3.10;;
14994;SDS011;7593;49.006;8.372;2023-04-29T06:23:42;3.22;;;2.78;;
14994;SDS011;7593;49.006;8.372;2023-04-29T06:26:10;3.45;;;2.75;;
14994;SDS011;7593;49.006;8.372;2023-04-29T06:28:38;4.78;;;2.80;;
14994;SDS011;7593;49.006;8.372;2023-04-29T06:31:05;4.25;;;2.97;;
14994;SDS011;7593;49.006;8.372;2023-04-29T06:33:32;3.10;;;2.80;;
14994;SDS011;7593;49.006;8.372;2023-04-29T06:35:59;3.83;;;3.05;;
14994;SDS011;7593;49.006;8.372;2023-04-29T06:38:38;4.20;;;3.00;;
14994;SDS011;7593;49.006;8.372;2023-04-29T06:41:05;3.75;;;3.05;;
14994;SDS011;7593;49.006;8.372;2023-04-29T06:43:32;5.80;;;3.20;;
14994;SDS011;7593;49.006;8.372;2023-04-29T06:45:59;4.32;;;3.40;;
14994;SDS011;7593;49.006;8.372;2023-04-29T06:48:25;6.07;;;3.03;;
14994;SDS011;7593;49.006;8.372;2023-04-29T06:50:53;3.53;;;2.65;;
14994;SDS011;7593;49.006;8.372;2023-04-29T06:53:21;3.92;;;2.80;;
14994;SDS011;7593;49.006;8.372;2023-04-29T06:55:50;3.70;;;2.80;;
14994;SDS011;7593;49.006;8.372;2023-04-29T06:58:17;2.95;;;2.65;;
14994;SDS011;7593;49.006;8.372;2023-04-29T07:00:45;3.20;;;2.90;;
14994;SDS011;7593;49.006;8.372;2023-04-29T07:03:12;3.38;;;2.60;;
14994;SDS011;7593;49.006;8.372;2023-04-29T07:05:39;2.92;;;2.72;;
14994;SDS011;7593;49.006;8.372;2023-04-29T07:08:09;3.33;;;2.75;;
14994;SDS011;7593;49.006;8.372;2023-04-29T07:10:37;3.95;;;3.10;;
14994;SDS011;7593;49.006;8.372;2023-04-29T07:13:05;2.67;;;2.47;;
14994;SDS011;7593;49.006;8.372;2023-04-29T07:15:33;3.53;;;3.22;;
14994;SDS011;7593;49.006;8.372;2023-04-29T07:18:01;7.07;;;3.00;;
14994;SDS011;7593;49.006;8.372;2023-04-29T07:20:29;3.40;;;3.10;;
14994;SDS011;7593;49.006;8.372;2023-04-29T07:22:56;4.32;;;2.90;;
14994;SDS011;7593;49.006;8.372;2023-04-29T07:25:22;4.28;;;3.30;;
14994;SDS011;7593;49.006;8.372;2023-04-29T07:27:49;4.20;;;3.10;;
14994;SDS011;7593;49.006;8.372;2023-04-29T07:30:17;3.85;;;3.45;;
14994;SDS011;7593;49.006;8.372;2023-04-29T07:32:44;3.70;;;3.28;;
14994;SDS011;7593;49.006;8.372;2023-04-29T07:35:11;3.72;;;3.40;;
14994;SDS011;7593;49.006;8.372;2023-04-29T07:37:38;7.65;;;3.85;;
14994;SDS011;7593;49.006;8.372;2023-04-29T07:40:06;6.85;;;3.15;;
14994;SDS011;7593;49.006;8.372;2023-04-29T07:42:33;3.42;;;3.10;;
14994;SDS011;7593;49.006;8.372;2023-04-29T07:45:00;3.35;;;2.72;;
14994;SDS011;7593;49.006;8.372;2023-04-29T07:47:28;3.30;;;3.00;;
14994;SDS011;7593;49.006;8.372;2023-04-29T07:49:55;3.53;;;3.17;;
14994;SDS011;7593;49.006;8.372;2023-04-29T07:52:22;4.90;;;3.20;;
14994;SDS011;7593;49.006;8.372;2023-04-29T07:54:49;3.20;;;2.90;;
14994;SDS011;7593;49.006;8.372;2023-04-29T07:57:15;3.85;;;2.70;;
14994;SDS011;7593;49.006;8.372;2023-04-29T07:59:42;3.13;;;2.80;;
14994;SDS011;7593;49.006;8.372;2023-04-29T08:02:09;4.60;;;3.20;;
14994;SDS011;7593;49.006;8.372;2023-04-29T08:04:39;3.28;;;2.97;;
14994;SDS011;7593;49.006;8.372;2023-04-29T08:07:06;4.63;;;2.90;;
14994;SDS011;7593;49.006;8.372;2023-04-29T08:09:33;4.03;;;3.00;;
14994;SDS011;7593;49.006;8.372;2023-04-29T08:12:03;4.95;;;2.70;;
14994;SDS011;7593;49.006;8.372;2023-04-29T08:14:30;4.82;;;2.78;;
14994;SDS011;7593;49.006;8.372;2023-04-29T08:16:57;3.80;;;2.88;;
14994;SDS011;7593;49.006;8.372;2023-04-29T08:19:24;2.83;;;2.63;;
14994;SDS011;7593;49.006;8.372;2023-04-29T08:21:52;3.03;;;2.55;;
14994;SDS011;7593;49.006;8.372;2023-04-29T08:24:19;2.90;;;2.47;;
14994;SDS011;7593;49.006;8.372;2023-04-29T08:26:46;2.90;;;2.60;;
14994;SDS011;7593;49.006;8.372;2023-04-29T08:29:13;3.35;;;2.50;;
14994;SDS011;7593;49.006;8.372;2023-04-29T08:31:40;3.28;;;2.42;;
14994;SDS011;7593;49.006;8.372;2023-04-29T08:34:07;3.45;;;2.90;;
14994;SDS011;7593;49.006;8.372;2023-04-29T08:36:33;4.50;;;3.00;;
14994;SDS011;7593;49.006;8.372;2023-04-29T08:39:04;4.45;;;2.95;;
14994;SDS011;7593;49.006;8.372;2023-04-29T08:41:30;4.93;;;3.08;;
14994;SDS011;7593;49.006;8.372;2023-04-29T08:43:58;4.10;;;2.63;;
14994;SDS011;7593;49.006;8.372;2023-04-29T08:46:25;4.70;;;2.90;;
14994;SDS011;7593;49.006;8.372;2023-04-29T08:48:52;3.33;;;2.67;;
14994;SDS011;7593;49.006;8.372;2023-04-29T08:51:21;4.60;;;3.20;;
14994;SDS011;7593;49.006;8.372;2023-04-29T08:53:48;3.05;;;2.75;;
14994;SDS011;7593;49.006;8.372;2023-04-29T08:56:17;3.65;;;2.70;;
14994;SDS011;7593;49.006;8.372;2023-04-29T08:58:45;3.13;;;2.83;;
14994;SDS011;7593;49.006;8.372;2023-04-29T09:01:15;3.92;;;3.03;;
14994;SDS011;7593;49.006;8.372;2023-04-29T09:03:45;4.55;;;2.90;;
14994;SDS011;7593;49.006;8.372;2023-04-29T09:06:16;3.22;;;3.00;;
14994;SDS011;7593;49.006;8.372;2023-04-29T09:08:43;3.67;;;2.97;;
14994;SDS011;7593;49.006;8.372;2023-04-29T09:11:10;4.35;;;3.33;;
14994;SDS011;7593;49.006;8.372;2023-04-29T09:13:40;3.30;;;3.00;;
14994;SDS011;7593;49.006;8.372;2023-04-29T09:16:09;3.85;;;3.45;;
14994;SDS011;7593;49.006;8.372;2023-04-29T09:18:46;3.72;;;3.42;;
14994;SDS011;7593;49.006;8.372;2023-04-29T09:21:15;3.42;;;3.13;;
14994;SDS011;7593;49.006;8.372;2023-04-29T09:23:43;3.60;;;3.30;;
14994;SDS011;7593;49.006;8.372;2023-04-29T09:26:11;3.55;;;3.20;;
14994;SDS011;7593;49.006;8.372;2023-04-29T09:28:39;4.65;;;3.10;;
14994;SDS011;7593;49.006;8.372;2023-04-29T09:31:09;3.58;;;3.20;;
14994;SDS011;7593;49.006;8.372;2023-04-29T09:33:49;4.63;;;3.88;;
14994;SDS011;7593;49.006;8.372;2023-04-29T09:39:06;4.60;;;3.80;;
14994;SDS011;7593;49.006;8.372;2023-04-29T09:41:37;3.97;;;3.55;;
14994;SDS011;7593;49.006;8.372;2023-04-29T09:44:07;5.18;;;4.00;;
14994;SDS011;7593;49.006;8.372;2023-04-29T09:46:35;4.22;;;3.42;;
14994;SDS011;7593;49.006;8.372;2023-04-29T09:49:02;6.38;;;4.43;;
14994;SDS011;7593;49.006;8.372;2023-04-29T09:51:30;4.72;;;3.72;;
14994;SDS011;7593;49.006;8.372;2023-04-29T09:53:58;4.22;;;3.83;;
14994;SDS011;7593;49.006;8.372;2023-04-29T09:56:25;4.25;;;3.85;;
14994;SDS011;7593;49.006;8.372;2023-04-29T09:58:55;5.95;;;4.15;;
14994;SDS011;7593;49.006;8.372;2023-04-29T10:01:23;4.47;;;4.07;;
14994;SDS011;7593;49.006;8.372;2023-04-29T10:03:52;4.20;;;3.80;;
14994;SDS011;7593;49.006;8.372;2023-04-29T10:06:21;4.30;;;3.90;;
14994;SDS011;7593;49.006;8.372;2023-04-29T10:08:48;4.57;;;4.10;;
14994;SDS011;7593;49.006;8.372;2023-04-29T10:11:16;4.95;;;4.28;;
14994;SDS011;7593;49.006;8.372;2023-04-29T10:13:43;3.95;;;3.47;;
14994;SDS011;7593;49.006;8.372;2023-04-29T10:16:14;5.15;;;3.78;;
14994;SDS011;7593;49.006;8.372;2023-04-29T10:18:52;9.63;;;5.28;;
14994;SDS011;7593;49.006;8.372;2023-04-29T10:21:20;7.78;;;6.03;;
14994;SDS011;7593;49.006;8.372;2023-04-29T10:23:52;6.57;;;5.93;;
14994;SDS011;7593;49.006;8.372;2023-04-29T10:26:21;7.60;;;6.53;;
14994;SDS011;7593;49.006;8.372;2023-04-29T10:28:50;7.15;;;6.03;;
14994;SDS011;7593;49.006;8.372;2023-04-29T10:31:18;8.18;;;6.22;;
14994;SDS011;7593;49.006;8.372;2023-04-29T10:33:47;7.65;;;6.10;;
14994;SDS011;7593;49.006;8.372;2023-04-29T10:36:20;7.88;;;5.85;;
14994;SDS011;7593;49.006;8.372;2023-04-29T10:38:48;7.15;;;5.85;;
14994;SDS011;7593;49.006;8.372;2023-04-29T10:41:18;7.45;;;5.65;;
14994;SDS011;7593;49.006;8.372;2023-04-29T10:43:48;5.55;;;5.05;;
14994;SDS011;7593;49.006;8.372;2023-04-29T10:46:16;5.30;;;4.80;;
14994;SDS011;7593;49.006;8.372;2023-04-29T10:48:44;6.05;;;4.63;;
14994;SDS011;7593;49.006;8.372;2023-04-29T10:51:11;5.70;;;5.10;;
14994;SDS011;7593;49.006;8.372;2023-04-29T10:56:34;6.85;;;4.97;;
14994;SDS011;7593;49.006;8.372;2023-04-29T10:59:05;4.97;;;4.57;;
14994;SDS011;7593;49.006;8.372;2023-04-29T11:01:39;6.05;;;4.80;;
14994;SDS011;7593;49.006;8.372;2023-04-29T11:04:07;5.57;;;4.65;;
14994;SDS011;7593;49.006;8.372;2023-04-29T11:06:39;6.22;;;5.15;;
14994;SDS011;7593;49.006;8.372;2023-04-29T11:09:11;5.75;;;4.78;;
14994;SDS011;7593;49.006;8.372;2023-04-29T11:14:24;5.40;;;4.90;;
14994;SDS011;7593;49.006;8.372;2023-04-29T11:16:53;5.75;;;4.80;;
14994;SDS011;7593;49.006;8.372;2023-04-29T11:19:23;5.53;;;5.05;;
14994;SDS011;7593;49.006;8.372;2023-04-29T11:24:56;6.25;;;5.65;;
14994;SDS011;7593;49.006;8.372;2023-04-29T11:27:24;6.15;;;4.95;;
14994;SDS011;7593;49.006;8.372;2023-04-29T11:29:52;6.38;;;5.43;;
14994;SDS011;7593;49.006;8.372;2023-04-29T11:32:22;7.25;;;5.40;;
14994;SDS011;7593;49.006;8.372;2023-04-29T11:34:49;12.52;;;6.07;;
14994;SDS011;7593;49.006;8.372;2023-04-29T11:37:20;6.80;;;5.70;;
14994;SDS011;7593;49.006;8.372;2023-04-29T11:39:48;9.63;;;5.63;;
14994;SDS011;7593;49.006;8.372;2023-04-29T11:42:21;6.47;;;5.80;;
14994;SDS011;7593;49.006;8.372;2023-04-29T11:44:50;9.90;;;6.10;;
14994;SDS011;7593;49.006;8.372;2023-04-29T11:47:18;7.32;;;5.78;;
14994;SDS011;7593;49.006;8.372;2023-04-29T11:49:46;5.68;;;5.18;;
14994;SDS011;7593;49.006;8.372;2023-04-29T11:52:13;8.75;;;5.85;;
14994;SDS011;7593;49.006;8.372;2023-04-29T11:54:40;6.20;;;5.60;;
14994;SDS011;7593;49.006;8.372;2023-04-29T11:57:09;6.40;;;5.68;;
14994;SDS011;7593;49.006;8.372;2023-04-29T11:59:37;6.07;;;5.47;;
14994;SDS011;7593;49.006;8.372;2023-04-29T12:02:07;6.35;;;5.60;;
14994;SDS011;7593;49.006;8.372;2023-04-29T12:04:43;5.97;;;5.38;;
14994;SDS011;7593;49.006;8.372;2023-04-29T12:07:10;6.90;;;6.20;;
14994;SDS011;7593;49.006;8.372;2023-04-29T12:09:40;7.50;;;5.80;;
14994;SDS011;7593;49.006;8.372;2023-04-29T12:12:08;6.57;;;5.85;;
14994;SDS011;7593;49.006;8.372;2023-04-29T12:14:37;7.57;;;6.05;;
14994;SDS011;7593;49.006;8.372;2023-04-29T12:17:05;8.70;;;6.40;;
14994;SDS011;7593;49.006;8.372;2023-04-29T12:19:32;10.57;;;6.55;;
14994;SDS011;7593;49.006;8.372;2023-04-29T12:22:02;7.47;;;6.15;;
14994;SDS011;7593;49.006;8.372;2023-04-29T12:24:31;6.07;;;5.32;;
14994;SDS011;7593;49.006;8.372;2023-04-29T12:26:59;6.60;;;6.00;;
14994;SDS011;7593;49.006;8.372;2023-04-29T12:29:26;5.93;;;5.40;;
14994;SDS011;7593;49.006;8.372;2023-04-29T12:31:55;6.03;;;5.30;;
14994;SDS011;7593;49.006;8.372;2023-04-29T12:34:27;5.82;;;5.13;;
14994;SDS011;7593;49.006;8.372;2023-04-29T12:36:55;5.80;;;5.20;;
14994;SDS011;7593;49.006;8.372;2023-04-29T12:39:22;5.70;;;5.07;;
14994;SDS011;7593;49.006;8.372;2023-04-29T12:41:53;5.80;;;4.85;;
14994;SDS011;7593;49.006;8.372;2023-04-29T12:44:21;6.28;;;5.47;;
14994;SDS011;7593;49.006;8.372;2023-04-29T12:46:48;5.93;;;5.32;;
14994;SDS011;7593;49.006;8.372;2023-04-29T12:49:17;5.65;;;5.15;;
14994;SDS011;7593;49.006;8.372;2023-04-29T12:51:45;5.88;;;5.18;;
14994;SDS011;7593;49.006;8.372;2023-04-29T12:54:12;6.82;;;5.35;;
14994;SDS011;7593;49.006;8.372;2023-04-29T12:56:39;6.43;;;5.82;;
14994;SDS011;7593;49.006;8.372;2023-04-29T12:59:06;6.95;;;5.72;;
14994;SDS011;7593;49.006;8.372;2023-04-29T13:01:33;7.40;;;6.15;;
14994;SDS011;7593;49.006;8.372;2023-04-29T13:04:00;7.63;;;6.05;;
14994;SDS011;7593;49.006;8.372;2023-04-29T13:06:30;7.25;;;5.70;;
14994;SDS011;7593;49.006;8.372;2023-04-29T13:08:57;6.30;;;5.40;;
14994;SDS011;7593;49.006;8.372;2023-04-29T13:11:24;6.38;;;5.78;;
14994;SDS011;7593;49.006;8.372;2023-04-29T13:13:51;5.57;;;4.95;;
14994;SDS011;7593;49.006;8.372;2023-04-29T13:16:17;5.78;;;5.15;;
14994;SDS011;7593;49.006;8.372;2023-04-29T13:18:44;7.00;;;5.07;;
14994;SDS011;7593;49.006;8.372;2023-04-29T13:21:11;6.78;;;5.75;;
14994;SDS011;7593;49.006;8.372;2023-04-29T13:23:39;6.25;;;5.43;;
14994;SDS011;7593;49.006;8.372;2023-04-29T13:26:06;6.20;;;5.70;;
14994;SDS011;7593;49.006;8.372;2023-04-29T13:28:33;6.82;;;5.75;;
14994;SDS011;7593;49.006;8.372;2023-04-29T13:30:59;6.00;;;5.40;;
14994;SDS011;7593;49.006;8.372;2023-04-29T13:33:26;5.47;;;4.97;;
14994;SDS011;7593;49.006;8.372;2023-04-29T13:35:53;5.57;;;5.07;;
14994;SDS011;7593;49.006;8.372;2023-04-29T13:38:20;7.60;;;4.82;;
14994;SDS011;7593;49.006;8.372;2023-04-29T13:40:48;6.07;;;5.00;;
14994;SDS011;7593;49.006;8.372;2023-04-29T13:43:15;5.82;;;5.28;;
14994;SDS011;7593;49.006;8.372;2023-04-29T13:45:42;8.30;;;5.03;;
14994;SDS011;7593;49.006;8.372;2023-04-29T13:48:09;5.70;;;4.85;;
14994;SDS011;7593;49.006;8.372;2023-04-29T13:50:36;5.50;;;4.97;;
14994;SDS011;7593;49.006;8.372;2023-04-29T13:53:05;5.50;;;4.85;;
14994;SDS011;7593;49.006;8.372;2023-04-29T13:55:32;6.32;;;4.80;;
14994;SDS011;7593;49.006;8.372;2023-04-29T13:58:00;6.07;;;4.65;;
14994;SDS011;7593;49.006;8.372;2023-04-29T14:00:27;6.20;;;4.43;;
14994;SDS011;7593;49.006;8.372;2023-04-29T14:02:54;6.18;;;4.95;;
14994;SDS011;7593;49.006;8.372;2023-04-29T14:05:21;5.35;;;4.57;;
14994;SDS011;7593;49.006;8.372;2023-04-29T14:07:48;5.00;;;4.60;;
14994;SDS011;7593;49.006;8.372;2023-04-29T14:10:15;7.20;;;4.72;;
14994;SDS011;7593;49.006;8.372;2023-04-29T14:12:42;6.35;;;4.35;;
14994;SDS011;7593;49.006;8.372;2023-04-29T14:15:11;4.38;;;3.97;;
14994;SDS011;7593;49.006;8.372;2023-04-29T14:17:38;5.18;;;4.65;;
14994;SDS011;7593;49.006;8.372;2023-04-29T14:20:05;5.07;;;4.28;;
14994;SDS011;7593;49.006;8.372;2023-04-29T14:22:33;4.57;;;3.60;;
14994;SDS011;7593;49.006;8.372;2023-04-29T14:24:59;4.35;;;3.95;;
14994;SDS011;7593;49.006;8.372;2023-04-29T14:27:26;4.68;;;4.03;;
14994;SDS011;7593;49.006;8.372;2023-04-29T14:29:53;6.07;;;4.57;;
14994;SDS011;7593;49.006;8.372;2023-04-29T14:32:21;5.15;;;4.65;;
14994;SDS011;7593;49.006;8.372;2023-04-29T14:34:48;5.57;;;4.68;;
14994;SDS011;7593;49.006;8.372;2023-04-29T14:37:15;5.25;;;4.70;;
14994;SDS011;7593;49.006;8.372;2023-04-29T14:39:42;5.95;;;5.35;;
14994;SDS011;7593;49.006;8.372;2023-04-29T14:42:08;5.53;;;4.95;;
14994;SDS011;7593;49.006;8.372;2023-04-29T14:44:36;6.78;;;4.50;;
14994;SDS011;7593;49.006;8.372;2023-04-29T14:47:03;6.15;;;4.97;;
14994;SDS011;7593;49.006;8.372;2023-04-29T14:49:31;5.68;;;4.97;;
14994;SDS011;7593;49.006;8.372;2023-04-29T14:51:58;5.88;;;5.32;;
14994;SDS011;7593;49.006;8.372;2023-04-29T14:54:25;5.05;;;4.57;;
14994;SDS011;7593;49.006;8.372;2023-04-29T14:56:52;5.85;;;4.53;;
14994;SDS011;7593;49.006;8.372;2023-04-29T14:59:19;5.63;;;4.35;;
14994;SDS011;7593;49.006;8.372;2023-04-29T15:01:45;6.05;;;4.50;;
14994;SDS011;7593;49.006;8.372;2023-04-29T15:04:12;5.72;;;4.22;;
14994;SDS011;7593;49.006;8.372;2023-04-29T15:06:41;6.70;;;4.47;;
14994;SDS011;7593;49.006;8.372;2023-04-29T15:09:08;5.90;;;5.30;;
14994;SDS011;7593;49.006;8.372;2023-04-29T15:11:35;7.40;;;5.20;;
14994;SDS011;7593;49.006;8.372;2023-04-29T15:14:02;4.90;;;4.50;;
14994;SDS011;7593;49.006;8.372;2023-04-29T15:16:28;5.75;;;5.15;;